sensor_id;sensor_type;location;lat;lon;timestamp;pressure;altitude;pressure_sealevel;temperature;humidity
64368;BME280;50692;53.314;-6.300;2023-05-25T00:01:58;102741.06;;;16.77;70.70
64368;BME280;50692;53.314;-6.300;2023-05-25T00:04:44;102727.44;;;16.63;70.86
64368;BME280;50692;53.314;-6.300;2023-05-25T00:07:34;102740.25;;;16.75;70.76
64368;BME280;50692;53.314;-6.300;2023-05-25T00:10:20;102716.41;;;16.70;70.59
64368;BME280;50692;53.314;-6.300;2023-05-25T00:13:06;102726.94;;;16.73;70.39
64368;BME280;50692;53.314;-6.300;2023-05-25T00:15:52;102731.22;;;16.77;70.42
64368;BME280;50692;53.314;-6.300;2023-05-25T00:18:38;102733.91;;;16.77;70.46
64368;BME280;50692;53.314;-6.300;2023-05-25T00:21:27;102734.63;;;16.81;70.24
64368;BME280;50692;53.314;-6.300;2023-05-25T00:24:14;102724.22;;;16.75;70.37
64368;BME280;50692;53.314;-6.300;2023-05-25T00:27:00;102735.72;;;16.77;70.31
64368;BME280;50692;53.314;-6.300;2023-05-25T00:29:46;102732.09;;;16.78;70.43
64368;BME280;50692;53.314;-6.300;2023-05-25T00:32:32;102733.91;;;16.77;70.37
64368;BME280;50692;53.314;-6.300;2023-05-25T00:35:18;102725.28;;;16.71;70.45
64368;BME280;50692;53.314;-6.300;2023-05-25T00:38:04;102730.84;;;16.66;70.27
64368;BME280;50692;53.314;-6.300;2023-05-25T00:40:54;102738.75;;;16.68;70.34
64368;BME280;50692;53.314;-6.300;2023-05-25T00:43:44;102729.81;;;16.69;70.08
64368;BME280;50692;53.314;-6.300;2023-05-25T00:46:31;102735.16;;;16.69;70.03
64368;BME280;50692;53.314;-6.300;2023-05-25T00:49:20;102717.75;;;16.60;69.73
64368;BME280;50692;53.314;-6.300;2023-05-25T00:52:11;102740.28;;;16.73;69.49
64368;BME280;50692;53.314;-6.300;2023-05-25T00:54:59;102730.41;;;16.57;69.62
64368;BME280;50692;53.314;-6.300;2023-05-25T00:57:50;102743.38;;;16.64;69.28
64368;BME280;50692;53.314;-6.300;2023-05-25T01:00:39;102734.78;;;16.58;69.08
64368;BME280;50692;53.314;-6.300;2023-05-25T01:03:30;102744.59;;;16.57;68.77
64368;BME280;50692;53.314;-6.300;2023-05-25T01:06:20;102748.22;;;16.56;68.76
64368;BME280;50692;53.314;-6.300;2023-05-25T01:09:07;102742.94;;;16.54;68.77
64368;BME280;50692;53.314;-6.300;2023-05-25T01:11:56;102739.25;;;16.57;68.42
64368;BME280;50692;53.314;-6.300;2023-05-25T01:15:03;102742.03;;;16.55;68.54
64368;BME280;50692;53.314;-6.300;2023-05-25T01:17:50;102746.91;;;16.46;68.77
64368;BME280;50692;53.314;-6.300;2023-05-25T01:23:36;102741.19;;;16.35;69.21
64368;BME280;50692;53.314;-6.300;2023-05-25T01:26:24;102747.47;;;16.34;69.09
64368;BME280;50692;53.314;-6.300;2023-05-25T01:29:12;102735.91;;;16.33;69.08
64368;BME280;50692;53.314;-6.300;2023-05-25T01:31:59;102754.59;;;16.33;69.43
64368;BME280;50692;53.314;-6.300;2023-05-25T01:34:47;102743.47;;;16.23;69.61
64368;BME280;50692;53.314;-6.300;2023-05-25T01:37:35;102728.53;;;16.19;69.40
64368;BME280;50692;53.314;-6.300;2023-05-25T01:40:26;102757.25;;;16.33;69.55
64368;BME280;50692;53.314;-6.300;2023-05-25T01:43:11;102758.19;;;16.32;69.77
64368;BME280;50692;53.314;-6.300;2023-05-25T01:55:04;102752.25;;;16.25;70.54
64368;BME280;50692;53.314;-6.300;2023-05-25T01:57:52;102759.66;;;16.19;70.54
64368;BME280;50692;53.314;-6.300;2023-05-25T02:00:43;102759.88;;;16.14;70.77
64368;BME280;50692;53.314;-6.300;2023-05-25T02:03:30;102756.81;;;16.03;71.65
64368;BME280;50692;53.314;-6.300;2023-05-25T02:06:16;102759.81;;;15.95;72.15
64368;BME280;50692;53.314;-6.300;2023-05-25T02:09:01;102760.56;;;15.99;71.92
64368;BME280;50692;53.314;-6.300;2023-05-25T02:11:48;102759.69;;;15.98;71.68
64368;BME280;50692;53.314;-6.300;2023-05-25T02:14:34;102763.00;;;16.03;71.65
64368;BME280;50692;53.314;-6.300;2023-05-25T02:17:19;102765.81;;;16.00;71.46
64368;BME280;50692;53.314;-6.300;2023-05-25T02:20:06;102760.75;;;15.94;71.69
64368;BME280;50692;53.314;-6.300;2023-05-25T02:22:52;102770.34;;;15.78;72.25
64368;BME280;50692;53.314;-6.300;2023-05-25T02:25:38;102772.34;;;15.73;72.69
64368;BME280;50692;53.314;-6.300;2023-05-25T02:28:24;102777.06;;;15.66;72.96
64368;BME280;50692;53.314;-6.300;2023-05-25T02:31:10;102781.53;;;15.66;72.83
64368;BME280;50692;53.314;-6.300;2023-05-25T02:33:56;102780.13;;;15.55;72.97
64368;BME280;50692;53.314;-6.300;2023-05-25T02:36:43;102780.91;;;15.57;73.05
64368;BME280;50692;53.314;-6.300;2023-05-25T02:39:29;102776.22;;;15.42;73.21
64368;BME280;50692;53.314;-6.300;2023-05-25T02:42:15;102779.28;;;15.33;73.64
64368;BME280;50692;53.314;-6.300;2023-05-25T02:45:01;102784.88;;;15.25;73.82
64368;BME280;50692;53.314;-6.300;2023-05-25T02:47:53;102784.28;;;15.19;73.78
64368;BME280;50692;53.314;-6.300;2023-05-25T02:50:39;102783.78;;;15.09;74.27
64368;BME280;50692;53.314;-6.300;2023-05-25T02:53:25;102787.53;;;15.03;74.36
64368;BME280;50692;53.314;-6.300;2023-05-25T02:56:11;102787.84;;;14.96;74.55
64368;BME280;50692;53.314;-6.300;2023-05-25T02:58:56;102792.47;;;14.91;74.54
64368;BME280;50692;53.314;-6.300;2023-05-25T03:01:42;102788.34;;;14.82;74.80
64368;BME280;50692;53.314;-6.300;2023-05-25T03:04:28;102798.16;;;14.81;74.88
64368;BME280;50692;53.314;-6.300;2023-05-25T03:07:18;102803.56;;;14.78;74.93
64368;BME280;50692;53.314;-6.300;2023-05-25T03:10:04;102800.91;;;14.78;74.73
64368;BME280;50692;53.314;-6.300;2023-05-25T03:12:49;102804.69;;;14.73;74.71
64368;BME280;50692;53.314;-6.300;2023-05-25T03:15:35;102808.25;;;14.72;74.64
64368;BME280;50692;53.314;-6.300;2023-05-25T03:18:21;102807.66;;;14.65;74.76
64368;BME280;50692;53.314;-6.300;2023-05-25T03:21:07;102813.84;;;14.66;74.86
64368;BME280;50692;53.314;-6.300;2023-05-25T03:23:53;102811.38;;;14.59;74.74
64368;BME280;50692;53.314;-6.300;2023-05-25T03:26:38;102817.94;;;14.49;75.26
64368;BME280;50692;53.314;-6.300;2023-05-25T03:29:25;102815.25;;;14.49;74.79
64368;BME280;50692;53.314;-6.300;2023-05-25T03:32:11;102819.03;;;14.44;74.80
64368;BME280;50692;53.314;-6.300;2023-05-25T03:34:57;102807.78;;;14.35;74.93
64368;BME280;50692;53.314;-6.300;2023-05-25T03:37:43;102817.50;;;14.36;74.75
64368;BME280;50692;53.314;-6.300;2023-05-25T03:40:28;102819.53;;;14.30;74.74
64368;BME280;50692;53.314;-6.300;2023-05-25T03:43:15;102824.97;;;14.25;74.77
64368;BME280;50692;53.314;-6.300;2023-05-25T03:46:01;102822.56;;;14.19;74.76
64368;BME280;50692;53.314;-6.300;2023-05-25T03:48:47;102826.09;;;14.18;74.66
64368;BME280;50692;53.314;-6.300;2023-05-25T03:51:33;102829.59;;;14.20;74.15
64368;BME280;50692;53.314;-6.300;2023-05-25T03:54:18;102821.69;;;14.19;74.20
64368;BME280;50692;53.314;-6.300;2023-05-25T03:57:04;102836.00;;;14.14;74.17
64368;BME280;50692;53.314;-6.300;2023-05-25T03:59:50;102841.31;;;14.14;74.12
64368;BME280;50692;53.314;-6.300;2023-05-25T04:02:36;102836.13;;;14.11;74.17
64368;BME280;50692;53.314;-6.300;2023-05-25T04:05:22;102838.88;;;14.08;74.28
64368;BME280;50692;53.314;-6.300;2023-05-25T04:08:08;102834.53;;;14.06;74.51
64368;BME280;50692;53.314;-6.300;2023-05-25T04:10:54;102814.84;;;13.85;74.88
64368;BME280;50692;53.314;-6.300;2023-05-25T04:13:40;102835.91;;;13.91;74.94
64368;BME280;50692;53.314;-6.300;2023-05-25T04:16:27;102834.97;;;13.92;75.41
64368;BME280;50692;53.314;-6.300;2023-05-25T04:19:13;102840.31;;;13.92;75.16
64368;BME280;50692;53.314;-6.300;2023-05-25T04:21:59;102836.78;;;13.91;75.34
64368;BME280;50692;53.314;-6.300;2023-05-25T04:24:45;102824.66;;;13.83;75.57
64368;BME280;50692;53.314;-6.300;2023-05-25T04:27:31;102843.91;;;13.89;76.00
64368;BME280;50692;53.314;-6.300;2023-05-25T04:30:17;102843.97;;;13.88;75.99
64368;BME280;50692;53.314;-6.300;2023-05-25T04:33:03;102847.50;;;13.88;76.24
64368;BME280;50692;53.314;-6.300;2023-05-25T04:35:49;102858.34;;;13.82;76.85
64368;BME280;50692;53.314;-6.300;2023-05-25T04:38:35;102861.22;;;13.76;77.18
64368;BME280;50692;53.314;-6.300;2023-05-25T04:41:21;102864.00;;;13.72;77.81
64368;BME280;50692;53.314;-6.300;2023-05-25T04:44:07;102866.63;;;13.73;77.73
64368;BME280;50692;53.314;-6.300;2023-05-25T04:46:54;102861.34;;;13.72;77.65
64368;BME280;50692;53.314;-6.300;2023-05-25T04:49:39;102861.56;;;13.65;78.03
64368;BME280;50692;53.314;-6.300;2023-05-25T04:52:25;102858.13;;;13.62;78.22
64368;BME280;50692;53.314;-6.300;2023-05-25T04:55:11;102857.28;;;13.60;78.19
64368;BME280;50692;53.314;-6.300;2023-05-25T04:57:57;102860.91;;;13.57;78.38
64368;BME280;50692;53.314;-6.300;2023-05-25T05:00:43;102859.25;;;13.53;78.45
64368;BME280;50692;53.314;-6.300;2023-05-25T05:03:29;102864.59;;;13.53;78.39
64368;BME280;50692;53.314;-6.300;2023-05-25T05:06:16;102867.44;;;13.47;78.39
64368;BME280;50692;53.314;-6.300;2023-05-25T05:09:02;102830.03;;;13.25;78.11
64368;BME280;50692;53.314;-6.300;2023-05-25T05:11:48;102876.19;;;13.51;77.76
64368;BME280;50692;53.314;-6.300;2023-05-25T05:14:34;102875.13;;;13.56;77.32
64368;BME280;50692;53.314;-6.300;2023-05-25T05:17:20;102883.97;;;13.57;77.09
64368;BME280;50692;53.314;-6.300;2023-05-25T05:20:08;102878.63;;;13.57;76.96
64368;BME280;50692;53.314;-6.300;2023-05-25T05:22:54;102883.19;;;13.53;76.77
64368;BME280;50692;53.314;-6.300;2023-05-25T05:25:40;102878.72;;;13.54;76.65
64368;BME280;50692;53.314;-6.300;2023-05-25T05:28:26;102875.19;;;13.55;76.45
64368;BME280;50692;53.314;-6.300;2023-05-25T05:31:12;102884.94;;;13.54;76.17
64368;BME280;50692;53.314;-6.300;2023-05-25T05:33:58;102875.19;;;13.55;76.11
64368;BME280;50692;53.314;-6.300;2023-05-25T05:36:44;102879.56;;;13.56;76.07
64368;BME280;50692;53.314;-6.300;2023-05-25T05:39:30;102889.34;;;13.55;76.03
64368;BME280;50692;53.314;-6.300;2023-05-25T05:42:16;102866.72;;;13.42;75.98
64368;BME280;50692;53.314;-6.300;2023-05-25T05:45:03;102879.63;;;13.54;75.89
64368;BME280;50692;53.314;-6.300;2023-05-25T05:47:51;102884.00;;;13.55;75.54
64368;BME280;50692;53.314;-6.300;2023-05-25T05:50:37;102884.78;;;13.59;75.43
64368;BME280;50692;53.314;-6.300;2023-05-25T05:53:23;102891.75;;;13.63;74.98
64368;BME280;50692;53.314;-6.300;2023-05-25T05:56:16;102892.53;;;13.66;74.81
64368;BME280;50692;53.314;-6.300;2023-05-25T05:59:03;102894.16;;;13.71;74.47
64368;BME280;50692;53.314;-6.300;2023-05-25T06:01:48;102890.44;;;13.76;74.36
64368;BME280;50692;53.314;-6.300;2023-05-25T06:04:34;102894.75;;;13.80;74.17
64368;BME280;50692;53.314;-6.300;2023-05-25T06:07:22;102887.56;;;13.82;74.19
64368;BME280;50692;53.314;-6.300;2023-05-25T06:10:09;102883.09;;;13.84;73.75
64368;BME280;50692;53.314;-6.300;2023-05-25T06:12:55;102883.88;;;13.88;73.67
64368;BME280;50692;53.314;-6.300;2023-05-25T06:15:40;102883.78;;;13.91;73.35
64368;BME280;50692;53.314;-6.300;2023-05-25T06:18:26;102891.41;;;14.02;73.14
64368;BME280;50692;53.314;-6.300;2023-05-25T06:21:12;102904.38;;;14.11;72.74
64368;BME280;50692;53.314;-6.300;2023-05-25T06:23:58;102899.97;;;14.10;72.48
64368;BME280;50692;53.314;-6.300;2023-05-25T06:26:44;102900.84;;;14.10;72.27
64368;BME280;50692;53.314;-6.300;2023-05-25T06:29:30;102902.38;;;14.18;72.06
64368;BME280;50692;53.314;-6.300;2023-05-25T06:32:16;102909.41;;;14.20;71.94
64368;BME280;50692;53.314;-6.300;2023-05-25T06:35:02;102908.44;;;14.23;71.62
64368;BME280;50692;53.314;-6.300;2023-05-25T06:37:48;102911.78;;;14.29;71.52
64368;BME280;50692;53.314;-6.300;2023-05-25T06:40:34;102912.19;;;14.42;71.09
64368;BME280;50692;53.314;-6.300;2023-05-25T06:43:20;102909.50;;;14.44;70.67
64368;BME280;50692;53.314;-6.300;2023-05-25T06:46:06;102917.63;;;14.39;70.74
64368;BME280;50692;53.314;-6.300;2023-05-25T06:48:52;102914.59;;;14.51;70.31
64368;BME280;50692;53.314;-6.300;2023-05-25T06:51:39;102924.63;;;14.68;69.86
64368;BME280;50692;53.314;-6.300;2023-05-25T06:54:24;102925.25;;;14.76;69.54
64368;BME280;50692;53.314;-6.300;2023-05-25T06:57:11;102920.59;;;14.83;69.17
64368;BME280;50692;53.314;-6.300;2023-05-25T06:59:57;102917.56;;;14.92;68.65
64368;BME280;50692;53.314;-6.300;2023-05-25T07:02:42;102934.88;;;15.04;68.13
64368;BME280;50692;53.314;-6.300;2023-05-25T07:05:28;102932.56;;;15.20;67.65
64368;BME280;50692;53.314;-6.300;2023-05-25T07:08:14;102933.88;;;15.31;66.99
64368;BME280;50692;53.314;-6.300;2023-05-25T07:11:00;102935.50;;;15.35;66.27
64368;BME280;50692;53.314;-6.300;2023-05-25T07:13:46;102928.56;;;15.31;66.14
64368;BME280;50692;53.314;-6.300;2023-05-25T07:16:32;102937.25;;;15.37;66.07
64368;BME280;50692;53.314;-6.300;2023-05-25T07:19:18;102937.59;;;15.51;65.96
64368;BME280;50692;53.314;-6.300;2023-05-25T07:22:04;102932.84;;;15.59;65.18
64368;BME280;50692;53.314;-6.300;2023-05-25T07:24:50;102927.13;;;15.70;64.92
64368;BME280;50692;53.314;-6.300;2023-05-25T07:27:36;102928.22;;;15.86;64.51
64368;BME280;50692;53.314;-6.300;2023-05-25T07:30:22;102929.66;;;15.95;64.12
64368;BME280;50692;53.314;-6.300;2023-05-25T07:33:07;102933.81;;;16.02;63.79
64368;BME280;50692;53.314;-6.300;2023-05-25T07:35:53;102942.25;;;16.13;63.20
64368;BME280;50692;53.314;-6.300;2023-05-25T07:38:39;102944.53;;;16.22;62.67
64368;BME280;50692;53.314;-6.300;2023-05-25T07:41:25;102941.69;;;16.27;62.42
64368;BME280;50692;53.314;-6.300;2023-05-25T07:44:11;102933.56;;;16.30;62.11
64368;BME280;50692;53.314;-6.300;2023-05-25T07:46:57;102927.91;;;16.38;61.68
64368;BME280;50692;53.314;-6.300;2023-05-25T07:49:42;102926.09;;;16.38;61.71
64368;BME280;50692;53.314;-6.300;2023-05-25T07:52:28;102930.44;;;16.41;61.34
64368;BME280;50692;53.314;-6.300;2023-05-25T07:55:14;102930.03;;;16.50;60.39
64368;BME280;50692;53.314;-6.300;2023-05-25T07:58:00;102923.16;;;16.65;59.91
64368;BME280;50692;53.314;-6.300;2023-05-25T08:00:47;102923.59;;;16.76;59.45
64368;BME280;50692;53.314;-6.300;2023-05-25T08:03:34;102916.84;;;16.88;59.00
64368;BME280;50692;53.314;-6.300;2023-05-25T08:06:21;102927.66;;;17.05;58.19
64368;BME280;50692;53.314;-6.300;2023-05-25T08:09:07;102933.81;;;17.26;57.25
64368;BME280;50692;53.314;-6.300;2023-05-25T08:11:53;102930.63;;;17.37;56.50
64368;BME280;50692;53.314;-6.300;2023-05-25T08:14:39;102936.91;;;17.55;55.55
64368;BME280;50692;53.314;-6.300;2023-05-25T08:17:25;102941.00;;;17.63;54.38
64368;BME280;50692;53.314;-6.300;2023-05-25T08:20:11;102936.94;;;17.73;53.30
64368;BME280;50692;53.314;-6.300;2023-05-25T08:22:57;102936.50;;;17.83;51.92
64368;BME280;50692;53.314;-6.300;2023-05-25T08:25:43;102938.09;;;18.06;51.09
64368;BME280;50692;53.314;-6.300;2023-05-25T08:28:29;102938.56;;;18.14;50.11
64368;BME280;50692;53.314;-6.300;2023-05-25T08:31:15;102931.47;;;18.13;48.56
64368;BME280;50692;53.314;-6.300;2023-05-25T08:34:01;102938.59;;;18.31;48.09
64368;BME280;50692;53.314;-6.300;2023-05-25T08:36:47;102942.28;;;18.46;47.06
64368;BME280;50692;53.314;-6.300;2023-05-25T08:39:33;102943.22;;;18.62;46.44
64368;BME280;50692;53.314;-6.300;2023-05-25T08:42:19;102938.50;;;18.67;45.04
64368;BME280;50692;53.314;-6.300;2023-05-25T08:45:05;102944.31;;;18.58;44.11
64368;BME280;50692;53.314;-6.300;2023-05-25T08:47:57;102945.75;;;18.65;44.06
64368;BME280;50692;53.314;-6.300;2023-05-25T08:50:44;102944.34;;;18.76;44.72
64368;BME280;50692;53.314;-6.300;2023-05-25T08:53:34;102946.41;;;18.88;44.54
64368;BME280;50692;53.314;-6.300;2023-05-25T08:56:20;102944.03;;;18.99;44.18
64368;BME280;50692;53.314;-6.300;2023-05-25T08:59:30;102937.34;;;19.24;43.40
64368;BME280;50692;53.314;-6.300;2023-05-25T09:02:53;102932.97;;;19.38;42.81
64368;BME280;50692;53.314;-6.300;2023-05-25T09:05:38;102934.69;;;19.55;43.33
64368;BME280;50692;53.314;-6.300;2023-05-25T09:08:24;102930.72;;;19.47;42.24
64368;BME280;50692;53.314;-6.300;2023-05-25T09:11:13;102923.63;;;19.46;41.25
64368;BME280;50692;53.314;-6.300;2023-05-25T09:13:59;102930.38;;;19.53;41.47
64368;BME280;50692;53.314;-6.300;2023-05-25T09:16:45;102932.31;;;19.67;41.92
64368;BME280;50692;53.314;-6.300;2023-05-25T09:19:34;102938.38;;;19.70;41.58
64368;BME280;50692;53.314;-6.300;2023-05-25T09:22:21;102936.97;;;19.79;41.49
64368;BME280;50692;53.314;-6.300;2023-05-25T09:25:07;102929.34;;;20.03;40.95
64368;BME280;50692;53.314;-6.300;2023-05-25T09:27:55;102932.34;;;20.12;40.95
64368;BME280;50692;53.314;-6.300;2023-05-25T09:30:42;102924.28;;;20.28;41.19
64368;BME280;50692;53.314;-6.300;2023-05-25T09:33:29;102923.03;;;20.34;40.78
64368;BME280;50692;53.314;-6.300;2023-05-25T09:36:15;102922.50;;;20.43;40.10
64368;BME280;50692;53.314;-6.300;2023-05-25T09:39:02;102927.81;;;20.59;40.15
64368;BME280;50692;53.314;-6.300;2023-05-25T09:41:48;102924.69;;;20.67;40.08
64368;BME280;50692;53.314;-6.300;2023-05-25T09:44:34;102926.25;;;20.85;39.04
64368;BME280;50692;53.314;-6.300;2023-05-25T09:47:20;102925.88;;;21.05;37.79
64368;BME280;50692;53.314;-6.300;2023-05-25T09:50:06;102930.06;;;21.24;36.64
64368;BME280;50692;53.314;-6.300;2023-05-25T09:52:57;102916.63;;;21.09;35.46
64368;BME280;50692;53.314;-6.300;2023-05-25T09:55:47;102922.00;;;21.24;35.77
64368;BME280;50692;53.314;-6.300;2023-05-25T09:58:33;102929.88;;;21.27;35.60
64368;BME280;50692;53.314;-6.300;2023-05-25T10:01:19;102922.97;;;21.23;35.08
64368;BME280;50692;53.314;-6.300;2023-05-25T10:04:05;102924.53;;;21.41;35.43
64368;BME280;50692;53.314;-6.300;2023-05-25T10:06:52;102924.78;;;21.65;35.10
64368;BME280;50692;53.314;-6.300;2023-05-25T10:09:40;102919.56;;;21.76;34.19
64368;BME280;50692;53.314;-6.300;2023-05-25T10:12:27;102929.06;;;21.82;33.98
64368;BME280;50692;53.314;-6.300;2023-05-25T10:15:13;102928.41;;;21.78;32.87
64368;BME280;50692;53.314;-6.300;2023-05-25T10:18:00;102922.72;;;21.83;32.71
64368;BME280;50692;53.314;-6.300;2023-05-25T10:20:48;102922.00;;;21.94;32.79
64368;BME280;50692;53.314;-6.300;2023-05-25T10:23:38;102918.56;;;22.19;33.64
64368;BME280;50692;53.314;-6.300;2023-05-25T10:26:26;102920.00;;;22.37;33.67
64368;BME280;50692;53.314;-6.300;2023-05-25T10:29:15;102919.59;;;22.43;33.84
64368;BME280;50692;53.314;-6.300;2023-05-25T10:32:02;102925.97;;;22.42;33.93
64368;BME280;50692;53.314;-6.300;2023-05-25T10:34:50;102921.22;;;22.46;33.28
64368;BME280;50692;53.314;-6.300;2023-05-25T10:37:37;102916.47;;;22.62;33.46
64368;BME280;50692;53.314;-6.300;2023-05-25T10:40:24;102922.97;;;22.85;33.16
64368;BME280;50692;53.314;-6.300;2023-05-25T10:43:10;102920.84;;;23.03;32.83
64368;BME280;50692;53.314;-6.300;2023-05-25T10:45:56;102922.53;;;23.17;31.95
64368;BME280;50692;53.314;-6.300;2023-05-25T10:48:46;102926.75;;;23.21;31.90
64368;BME280;50692;53.314;-6.300;2023-05-25T10:51:37;102922.66;;;23.28;32.21
64368;BME280;50692;53.314;-6.300;2023-05-25T10:54:30;102910.03;;;23.29;31.75
64368;BME280;50692;53.314;-6.300;2023-05-25T10:57:19;102914.00;;;23.36;31.25
64368;BME280;50692;53.314;-6.300;2023-05-25T11:00:06;102912.16;;;23.23;31.08
64368;BME280;50692;53.314;-6.300;2023-05-25T11:02:53;102917.25;;;23.28;31.09
64368;BME280;50692;53.314;-6.300;2023-05-25T11:05:40;102911.31;;;23.36;30.65
64368;BME280;50692;53.314;-6.300;2023-05-25T11:08:49;102907.47;;;23.51;29.83
64368;BME280;50692;53.314;-6.300;2023-05-25T11:17:17;102910.78;;;23.91;28.76
64368;BME280;50692;53.314;-6.300;2023-05-25T11:20:04;102903.59;;;24.03;28.46
64368;BME280;50692;53.314;-6.300;2023-05-25T11:22:50;102893.34;;;24.20;28.52
64368;BME280;50692;53.314;-6.300;2023-05-25T11:25:38;102900.38;;;24.22;28.50
64368;BME280;50692;53.314;-6.300;2023-05-25T11:28:26;102888.75;;;24.33;28.02
64368;BME280;50692;53.314;-6.300;2023-05-25T11:31:19;102894.06;;;24.46;27.20
64368;BME280;50692;53.314;-6.300;2023-05-25T11:34:07;102894.09;;;24.57;26.74
64368;BME280;50692;53.314;-6.300;2023-05-25T11:36:55;102889.28;;;24.49;26.30
64368;BME280;50692;53.314;-6.300;2023-05-25T11:39:48;102900.50;;;24.67;26.33
64368;BME280;50692;53.314;-6.300;2023-05-25T11:42:34;102897.19;;;24.75;26.29
64368;BME280;50692;53.314;-6.300;2023-05-25T11:45:21;102883.78;;;24.96;26.09
64368;BME280;50692;53.314;-6.300;2023-05-25T11:48:12;102884.94;;;25.16;25.66
64368;BME280;50692;53.314;-6.300;2023-05-25T11:51:05;102893.91;;;25.27;26.39
64368;BME280;50692;53.314;-6.300;2023-05-25T11:53:51;102890.81;;;25.43;25.70
64368;BME280;50692;53.314;-6.300;2023-05-25T11:56:36;102893.84;;;25.61;24.97
64368;BME280;50692;53.314;-6.300;2023-05-25T11:59:23;102887.56;;;25.72;24.86
64368;BME280;50692;53.314;-6.300;2023-05-25T12:02:10;102880.53;;;25.69;24.60
64368;BME280;50692;53.314;-6.300;2023-05-25T12:04:58;102882.28;;;25.59;24.71
64368;BME280;50692;53.314;-6.300;2023-05-25T12:07:45;102877.06;;;25.67;25.28
64368;BME280;50692;53.314;-6.300;2023-05-25T12:10:31;102877.41;;;25.85;25.67
64368;BME280;50692;53.314;-6.300;2023-05-25T12:13:17;102879.31;;;26.05;25.66
64368;BME280;50692;53.314;-6.300;2023-05-25T12:16:03;102874.56;;;26.19;25.32
64368;BME280;50692;53.314;-6.300;2023-05-25T12:18:53;102887.97;;;26.20;25.93
64368;BME280;50692;53.314;-6.300;2023-05-25T12:21:39;102883.50;;;26.30;25.80
64368;BME280;50692;53.314;-6.300;2023-05-25T12:24:26;102878.66;;;26.34;26.01
64368;BME280;50692;53.314;-6.300;2023-05-25T12:27:16;102877.25;;;26.40;26.20
64368;BME280;50692;53.314;-6.300;2023-05-25T12:30:07;102881.84;;;26.60;26.14
64368;BME280;50692;53.314;-6.300;2023-05-25T12:32:58;102873.88;;;26.68;27.20
64368;BME280;50692;53.314;-6.300;2023-05-25T12:35:47;102876.81;;;26.86;26.52
64368;BME280;50692;53.314;-6.300;2023-05-25T12:38:33;102870.13;;;27.21;25.73
64368;BME280;50692;53.314;-6.300;2023-05-25T12:41:18;102870.19;;;27.50;25.24
64368;BME280;50692;53.314;-6.300;2023-05-25T12:44:04;102867.81;;;27.66;25.33
64368;BME280;50692;53.314;-6.300;2023-05-25T12:46:54;102875.97;;;27.66;25.41
64368;BME280;50692;53.314;-6.300;2023-05-25T12:49:46;102880.25;;;27.69;25.04
64368;BME280;50692;53.314;-6.300;2023-05-25T12:52:34;102879.09;;;27.71;26.46
64368;BME280;50692;53.314;-6.300;2023-05-25T12:55:31;102874.94;;;27.48;28.92
64368;BME280;50692;53.314;-6.300;2023-05-25T12:58:27;102879.44;;;27.28;30.10
64368;BME280;50692;53.314;-6.300;2023-05-25T13:01:13;102880.75;;;27.34;30.68
64368;BME280;50692;53.314;-6.300;2023-05-25T13:03:58;102882.31;;;27.26;30.59
64368;BME280;50692;53.314;-6.300;2023-05-25T13:06:44;102876.16;;;27.24;31.03
64368;BME280;50692;53.314;-6.300;2023-05-25T13:09:30;102880.41;;;27.17;30.52
64368;BME280;50692;53.314;-6.300;2023-05-25T13:12:17;102876.56;;;26.89;30.79
64368;BME280;50692;53.314;-6.300;2023-05-25T13:15:05;102860.09;;;26.29;31.60
64368;BME280;50692;53.314;-6.300;2023-05-25T13:17:53;102877.13;;;26.41;31.84
64368;BME280;50692;53.314;-6.300;2023-05-25T13:20:39;102869.25;;;26.38;32.08
64368;BME280;50692;53.314;-6.300;2023-05-25T13:23:25;102869.09;;;26.51;32.08
64368;BME280;50692;53.314;-6.300;2023-05-25T13:26:11;102877.00;;;26.64;31.67
64368;BME280;50692;53.314;-6.300;2023-05-25T13:28:57;102861.84;;;26.61;31.99
64368;BME280;50692;53.314;-6.300;2023-05-25T13:31:43;102867.50;;;26.79;31.46
64368;BME280;50692;53.314;-6.300;2023-05-25T13:34:29;102851.56;;;26.86;31.34
64368;BME280;50692;53.314;-6.300;2023-05-25T13:37:18;102867.63;;;26.98;30.88
64368;BME280;50692;53.314;-6.300;2023-05-25T13:40:04;102870.22;;;26.79;30.92
64368;BME280;50692;53.314;-6.300;2023-05-25T13:42:50;102872.72;;;26.92;30.97
64368;BME280;50692;53.314;-6.300;2023-05-25T13:45:37;102869.47;;;26.98;30.88
64368;BME280;50692;53.314;-6.300;2023-05-25T13:48:23;102871.00;;;26.91;31.12
64368;BME280;50692;53.314;-6.300;2023-05-25T13:51:09;102865.00;;;26.97;31.54
64368;BME280;50692;53.314;-6.300;2023-05-25T13:53:55;102868.97;;;27.14;31.02
64368;BME280;50692;53.314;-6.300;2023-05-25T13:56:42;102870.28;;;27.19;31.13
64368;BME280;50692;53.314;-6.300;2023-05-25T13:59:27;102857.84;;;27.17;31.00
64368;BME280;50692;53.314;-6.300;2023-05-25T14:02:13;102859.06;;;27.03;31.22
64368;BME280;50692;53.314;-6.300;2023-05-25T14:04:59;102868.94;;;26.73;31.39
64368;BME280;50692;53.314;-6.300;2023-05-25T14:07:45;102872.13;;;26.58;31.46
64368;BME280;50692;53.314;-6.300;2023-05-25T14:10:31;102877.75;;;26.66;31.73
64368;BME280;50692;53.314;-6.300;2023-05-25T14:13:17;102869.63;;;26.75;31.23
64368;BME280;50692;53.314;-6.300;2023-05-25T14:16:03;102866.97;;;26.85;31.33
64368;BME280;50692;53.314;-6.300;2023-05-25T14:18:49;102862.56;;;26.84;31.10
64368;BME280;50692;53.314;-6.300;2023-05-25T14:21:35;102859.31;;;26.90;31.55
64368;BME280;50692;53.314;-6.300;2023-05-25T14:24:21;102851.75;;;26.94;31.09
64368;BME280;50692;53.314;-6.300;2023-05-25T14:27:07;102849.03;;;27.03;31.43
64368;BME280;50692;53.314;-6.300;2023-05-25T14:29:55;102848.03;;;26.95;30.85
64368;BME280;50692;53.314;-6.300;2023-05-25T14:32:41;102844.56;;;26.83;31.18
64368;BME280;50692;53.314;-6.300;2023-05-25T14:35:26;102843.25;;;26.77;31.27
64368;BME280;50692;53.314;-6.300;2023-05-25T14:38:12;102847.03;;;26.96;31.29
64368;BME280;50692;53.314;-6.300;2023-05-25T14:40:58;102837.66;;;27.10;31.44